sensor_id;sensor_type;location;lat;lon;timestamp;temperature;humidity
16263;DHT22;8239;48.594;8.598;2023-04-01T00:01:06;6.40;99.90
16263;DHT22;8239;48.594;8.598;2023-04-01T00:03:34;6.40;99.90
16263;DHT22;8239;48.594;8.598;2023-04-01T00:06:01;6.40;99.90
16263;DHT22;8239;48.594;8.598;2023-04-01T00:08:29;6.40;99.90
16263;DHT22;8239;48.594;8.598;2023-04-01T00:10:56;6.50;99.90
16263;DHT22;8239;48.594;8.598;2023-04-01T00:13:25;6.50;99.90
16263;DHT22;8239;48.594;8.598;2023-04-01T00:15:53;6.50;99.90
16263;DHT22;8239;48.594;8.598;2023-04-01T00:18:20;6.50;99.90
16263;DHT22;8239;48.594;8.598;2023-04-01T00:20:49;6.50;99.90
16263;DHT22;8239;48.594;8.598;2023-04-01T00:23:17;6.50;99.90
16263;DHT22;8239;48.594;8.598;2023-04-01T00:25:44;6.40;99.90
16263;DHT22;8239;48.594;8.598;2023-04-01T00:28:13;6.40;99.90
16263;DHT22;8239;48.594;8.598;2023-04-01T00:30:42;6.40;99.90
16263;DHT22;8239;48.594;8.598;2023-04-01T00:33:09;6.40;99.90
16263;DHT22;8239;48.594;8.598;2023-04-01T00:35:36;6.40;99.90
16263;DHT22;8239;48.594;8.598;2023-04-01T00:38:03;6.40;99.90
16263;DHT22;8239;48.594;8.598;2023-04-01T00:40:34;6.40;99.90
16263;DHT22;8239;48.594;8.598;2023-04-01T00:43:01;6.40;99.90
16263;DHT22;8239;48.594;8.598;2023-04-01T00:45:32;6.40;99.90
16263;DHT22;8239;48.594;8.598;2023-04-01T00:48:04;6.40;99.90
16263;DHT22;8239;48.594;8.598;2023-04-01T00:50:33;6.40;99.90
16263;DHT22;8239;48.594;8.598;2023-04-01T00:53:01;6.40;99.90
16263;DHT22;8239;48.594;8.598;2023-04-01T00:55:32;6.40;99.90
16263;DHT22;8239;48.594;8.598;2023-04-01T00:58:02;6.40;99.90
16263;DHT22;8239;48.594;8.598;2023-04-01T01:00:31;6.30;99.90
16263;DHT22;8239;48.594;8.598;2023-04-01T01:02:58;6.30;99.90
16263;DHT22;8239;48.594;8.598;2023-04-01T01:05:38;6.30;99.90
16263;DHT22;8239;48.594;8.598;2023-04-01T01:08:15;6.20;99.90
16263;DHT22;8239;48.594;8.598;2023-04-01T01:10:48;6.20;99.90
16263;DHT22;8239;48.594;8.598;2023-04-01T01:13:18;6.20;99.90
16263;DHT22;8239;48.594;8.598;2023-04-01T01:15:52;6.10;99.90
16263;DHT22;8239;48.594;8.598;2023-04-01T01:18:30;6.10;99.90
16263;DHT22;8239;48.594;8.598;2023-04-01T01:21:38;6.10;99.90
16263;DHT22;8239;48.594;8.598;2023-04-01T01:24:27;6.10;99.90
16263;DHT22;8239;48.594;8.598;2023-04-01T01:26:59;6.10;99.90
16263;DHT22;8239;48.594;8.598;2023-04-01T01:32:44;6.00;99.90
16263;DHT22;8239;48.594;8.598;2023-04-01T01:35:22;6.00;99.90
16263;DHT22;8239;48.594;8.598;2023-04-01T01:37:54;6.00;99.90
16263;DHT22;8239;48.594;8.598;2023-04-01T01:40:24;6.00;99.90
16263;DHT22;8239;48.594;8.598;2023-04-01T01:42:56;6.00;99.90
16263;DHT22;8239;48.594;8.598;2023-04-01T01:45:26;6.00;99.90
16263;DHT22;8239;48.594;8.598;2023-04-01T01:47:55;6.00;99.90
16263;DHT22;8239;48.594;8.598;2023-04-01T01:50:25;6.00;99.90
16263;DHT22;8239;48.594;8.598;2023-04-01T01:53:01;6.00;99.90
16263;DHT22;8239;48.594;8.598;2023-04-01T01:55:30;6.10;99.90
16263;DHT22;8239;48.594;8.598;2023-04-01T01:57:59;6.10;99.90
16263;DHT22;8239;48.594;8.598;2023-04-01T02:00:28;6.10;99.90
16263;DHT22;8239;48.594;8.598;2023-04-01T02:02:56;6.10;99.90
16263;DHT22;8239;48.594;8.598;2023-04-01T02:05:28;6.10;99.90
16263;DHT22;8239;48.594;8.598;2023-04-01T02:08:00;6.20;99.90
16263;DHT22;8239;48.594;8.598;2023-04-01T02:10:35;6.20;99.90
16263;DHT22;8239;48.594;8.598;2023-04-01T02:13:08;6.20;99.90
16263;DHT22;8239;48.594;8.598;2023-04-01T02:15:40;6.20;99.90
16263;DHT22;8239;48.594;8.598;2023-04-01T02:18:08;6.20;99.90
16263;DHT22;8239;48.594;8.598;2023-04-01T02:20:38;6.20;99.90
16263;DHT22;8239;48.594;8.598;2023-04-01T02:23:06;6.20;99.90
16263;DHT22;8239;48.594;8.598;2023-04-01T02:25:36;6.20;99.90
16263;DHT22;8239;48.594;8.598;2023-04-01T02:28:05;6.20;99.90
16263;DHT22;8239;48.594;8.598;2023-04-01T02:30:35;6.10;99.90
16263;DHT22;8239;48.594;8.598;2023-04-01T02:33:04;6.10;99.90
16263;DHT22;8239;48.594;8.598;2023-04-01T02:35:34;6.10;99.90
16263;DHT22;8239;48.594;8.598;2023-04-01T02:38:05;6.00;99.90
16263;DHT22;8239;48.594;8.598;2023-04-01T02:40:42;6.00;99.90
16263;DHT22;8239;48.594;8.598;2023-04-01T02:43:09;6.00;99.90
16263;DHT22;8239;48.594;8.598;2023-04-01T02:45:37;5.90;99.90
16263;DHT22;8239;48.594;8.598;2023-04-01T02:48:04;5.90;99.90
16263;DHT22;8239;48.594;8.598;2023-04-01T02:50:32;5.90;99.90
16263;DHT22;8239;48.594;8.598;2023-04-01T02:53:00;5.90;99.90
16263;DHT22;8239;48.594;8.598;2023-04-01T02:55:29;5.90;99.90
16263;DHT22;8239;48.594;8.598;2023-04-01T02:57:57;5.90;99.90
16263;DHT22;8239;48.594;8.598;2023-04-01T03:00:24;5.80;99.90
16263;DHT22;8239;48.594;8.598;2023-04-01T03:02:52;5.80;99.90
16263;DHT22;8239;48.594;8.598;2023-04-01T03:05:19;5.80;99.90
16263;DHT22;8239;48.594;8.598;2023-04-01T03:07:47;5.70;99.90
16263;DHT22;8239;48.594;8.598;2023-04-01T03:10:14;5.70;99.90
16263;DHT22;8239;48.594;8.598;2023-04-01T03:12:42;5.60;99.90
16263;DHT22;8239;48.594;8.598;2023-04-01T03:15:10;5.60;99.90
16263;DHT22;8239;48.594;8.598;2023-04-01T03:17:39;5.60;99.90
16263;DHT22;8239;48.594;8.598;2023-04-01T03:20:07;5.60;99.90
16263;DHT22;8239;48.594;8.598;2023-04-01T03:22:37;5.60;99.90
16263;DHT22;8239;48.594;8.598;2023-04-01T03:25:05;5.60;99.90
16263;DHT22;8239;48.594;8.598;2023-04-01T03:27:33;5.60;99.90
16263;DHT22;8239;48.594;8.598;2023-04-01T03:30:03;5.60;99.90
16263;DHT22;8239;48.594;8.598;2023-04-01T03:32:30;5.60;99.90
16263;DHT22;8239;48.594;8.598;2023-04-01T03:34:57;5.60;99.90
16263;DHT22;8239;48.594;8.598;2023-04-01T03:37:24;5.60;99.90
16263;DHT22;8239;48.594;8.598;2023-04-01T03:39:51;5.60;99.90
16263;DHT22;8239;48.594;8.598;2023-04-01T03:42:19;5.60;99.90
16263;DHT22;8239;48.594;8.598;2023-04-01T03:44:46;5.60;99.90
16263;DHT22;8239;48.594;8.598;2023-04-01T03:47:14;5.60;99.90
16263;DHT22;8239;48.594;8.598;2023-04-01T03:49:42;5.60;99.90
16263;DHT22;8239;48.594;8.598;2023-04-01T03:52:09;5.60;99.90
16263;DHT22;8239;48.594;8.598;2023-04-01T03:54:37;5.60;99.90
16263;DHT22;8239;48.594;8.598;2023-04-01T03:57:04;5.60;99.90
16263;DHT22;8239;48.594;8.598;2023-04-01T03:59:32;5.60;99.90
16263;DHT22;8239;48.594;8.598;2023-04-01T04:01:59;5.60;99.90
16263;DHT22;8239;48.594;8.598;2023-04-01T04:04:28;5.70;99.90
16263;DHT22;8239;48.594;8.598;2023-04-01T04:06:55;5.70;99.90
16263;DHT22;8239;48.594;8.598;2023-04-01T04:09:23;5.70;99.90
16263;DHT22;8239;48.594;8.598;2023-04-01T04:11:50;5.70;99.90
16263;DHT22;8239;48.594;8.598;2023-04-01T04:14:17;5.70;99.90
16263;DHT22;8239;48.594;8.598;2023-04-01T04:16:44;5.70;99.90
16263;DHT22;8239;48.594;8.598;2023-04-01T04:19:11;5.70;99.90
16263;DHT22;8239;48.594;8.598;2023-04-01T04:21:41;5.70;99.90
16263;DHT22;8239;48.594;8.598;2023-04-01T04:24:09;5.80;99.90
16263;DHT22;8239;48.594;8.598;2023-04-01T04:26:36;5.80;99.90
16263;DHT22;8239;48.594;8.598;2023-04-01T04:29:03;5.80;99.90
16263;DHT22;8239;48.594;8.598;2023-04-01T04:31:30;5.80;99.90
16263;DHT22;8239;48.594;8.598;2023-04-01T04:33:59;5.90;99.90
16263;DHT22;8239;48.594;8.598;2023-04-01T04:36:26;5.90;99.90
16263;DHT22;8239;48.594;8.598;2023-04-01T04:38:54;5.90;99.90
16263;DHT22;8239;48.594;8.598;2023-04-01T04:41:21;5.90;99.90
16263;DHT22;8239;48.594;8.598;2023-04-01T04:43:49;5.90;99.90
16263;DHT22;8239;48.594;8.598;2023-04-01T04:46:18;6.00;99.90
16263;DHT22;8239;48.594;8.598;2023-04-01T04:48:45;5.90;99.90
16263;DHT22;8239;48.594;8.598;2023-04-01T04:51:15;6.00;99.90
16263;DHT22;8239;48.594;8.598;2023-04-01T04:53:42;6.00;99.90
16263;DHT22;8239;48.594;8.598;2023-04-01T04:56:11;6.00;99.90
16263;DHT22;8239;48.594;8.598;2023-04-01T04:58:39;6.00;99.90
16263;DHT22;8239;48.594;8.598;2023-04-01T05:01:08;6.00;99.90
16263;DHT22;8239;48.594;8.598;2023-04-01T05:03:36;6.00;99.90
16263;DHT22;8239;48.594;8.598;2023-04-01T05:06:03;6.00;99.90
16263;DHT22;8239;48.594;8.598;2023-04-01T05:08:30;5.90;99.90
16263;DHT22;8239;48.594;8.598;2023-04-01T05:10:58;5.90;99.90
16263;DHT22;8239;48.594;8.598;2023-04-01T05:13:26;5.90;99.90
16263;DHT22;8239;48.594;8.598;2023-04-01T05:15:54;5.90;99.90
16263;DHT22;8239;48.594;8.598;2023-04-01T05:18:21;5.90;99.90
16263;DHT22;8239;48.594;8.598;2023-04-01T05:20:48;5.90;99.90
16263;DHT22;8239;48.594;8.598;2023-04-01T05:23:16;5.90;99.90
16263;DHT22;8239;48.594;8.598;2023-04-01T05:25:43;5.90;99.90
16263;DHT22;8239;48.594;8.598;2023-04-01T05:28:11;5.90;99.90
16263;DHT22;8239;48.594;8.598;2023-04-01T05:30:41;5.90;99.90
16263;DHT22;8239;48.594;8.598;2023-04-01T05:33:09;5.90;99.90
16263;DHT22;8239;48.594;8.598;2023-04-01T05:35:36;5.90;99.90
16263;DHT22;8239;48.594;8.598;2023-04-01T05:38:03;5.90;99.90
16263;DHT22;8239;48.594;8.598;2023-04-01T05:40:31;6.00;99.90
16263;DHT22;8239;48.594;8.598;2023-04-01T05:42:58;6.00;99.90
16263;DHT22;8239;48.594;8.598;2023-04-01T05:45:26;6.00;99.90
16263;DHT22;8239;48.594;8.598;2023-04-01T05:47:54;6.10;99.90
16263;DHT22;8239;48.594;8.598;2023-04-01T05:50:21;6.10;99.90
16263;DHT22;8239;48.594;8.598;2023-04-01T05:52:48;6.20;99.90
16263;DHT22;8239;48.594;8.598;2023-04-01T05:55:15;6.20;99.90
16263;DHT22;8239;48.594;8.598;2023-04-01T05:57:42;6.20;99.90
16263;DHT22;8239;48.594;8.598;2023-04-01T06:00:12;6.20;99.90
16263;DHT22;8239;48.594;8.598;2023-04-01T06:02:39;6.20;99.90
16263;DHT22;8239;48.594;8.598;2023-04-01T06:05:16;6.20;99.90
16263;DHT22;8239;48.594;8.598;2023-04-01T06:07:43;6.10;99.90
16263;DHT22;8239;48.594;8.598;2023-04-01T06:10:13;6.00;99.90
16263;DHT22;8239;48.594;8.598;2023-04-01T06:12:49;6.00;99.90
16263;DHT22;8239;48.594;8.598;2023-04-01T06:15:34;5.90;99.90
16263;DHT22;8239;48.594;8.598;2023-04-01T06:18:22;5.90;99.90
16263;DHT22;8239;48.594;8.598;2023-04-01T06:21:00;5.80;99.90
16263;DHT22;8239;48.594;8.598;2023-04-01T06:23:39;5.80;99.90
16263;DHT22;8239;48.594;8.598;2023-04-01T06:26:18;5.80;99.90
16263;DHT22;8239;48.594;8.598;2023-04-01T06:29:25;5.80;99.90
16263;DHT22;8239;48.594;8.598;2023-04-01T06:32:25;5.80;99.90
16263;DHT22;8239;48.594;8.598;2023-04-01T06:35:21;5.80;99.90
16263;DHT22;8239;48.594;8.598;2023-04-01T06:38:10;5.90;99.90
16263;DHT22;8239;48.594;8.598;2023-04-01T06:43:46;5.90;99.90
16263;DHT22;8239;48.594;8.598;2023-04-01T06:46:22;5.90;99.90
16263;DHT22;8239;48.594;8.598;2023-04-01T06:49:04;5.90;99.90
16263;DHT22;8239;48.594;8.598;2023-04-01T06:51:39;5.90;99.90
16263;DHT22;8239;48.594;8.598;2023-04-01T06:54:15;5.90;99.90
16263;DHT22;8239;48.594;8.598;2023-04-01T06:56:46;5.90;99.90
16263;DHT22;8239;48.594;8.598;2023-04-01T06:59:17;5.90;99.90
16263;DHT22;8239;48.594;8.598;2023-04-01T07:01:49;5.90;99.90
16263;DHT22;8239;48.594;8.598;2023-04-01T07:04:20;5.90;99.90
16263;DHT22;8239;48.594;8.598;2023-04-01T07:06:51;5.90;99.90
16263;DHT22;8239;48.594;8.598;2023-04-01T07:09:24;5.90;99.90
16263;DHT22;8239;48.594;8.598;2023-04-01T07:11:53;5.90;99.90
16263;DHT22;8239;48.594;8.598;2023-04-01T07:14:27;5.90;99.90
16263;DHT22;8239;48.594;8.598;2023-04-01T07:16:59;5.90;99.90
16263;DHT22;8239;48.594;8.598;2023-04-01T07:19:30;5.90;99.90
16263;DHT22;8239;48.594;8.598;2023-04-01T07:22:01;5.80;99.90
16263;DHT22;8239;48.594;8.598;2023-04-01T07:24:33;5.90;99.90
16263;DHT22;8239;48.594;8.598;2023-04-01T07:27:01;5.80;99.90
16263;DHT22;8239;48.594;8.598;2023-04-01T07:29:28;5.90;99.90
16263;DHT22;8239;48.594;8.598;2023-04-01T07:32:24;5.90;99.90
16263;DHT22;8239;48.594;8.598;2023-04-01T07:35:07;5.90;99.90
16263;DHT22;8239;48.594;8.598;2023-04-01T07:37:42;5.90;99.90
16263;DHT22;8239;48.594;8.598;2023-04-01T07:40:22;5.90;99.90
16263;DHT22;8239;48.594;8.598;2023-04-01T07:43:02;5.90;99.90
16263;DHT22;8239;48.594;8.598;2023-04-01T07:45:36;6.00;99.90
16263;DHT22;8239;48.594;8.598;2023-04-01T07:48:17;6.00;99.90
16263;DHT22;8239;48.594;8.598;2023-04-01T07:50:50;6.00;99.90
16263;DHT22;8239;48.594;8.598;2023-04-01T07:53:23;6.10;99.90
16263;DHT22;8239;48.594;8.598;2023-04-01T07:55:59;6.10;99.90
16263;DHT22;8239;48.594;8.598;2023-04-01T07:58:36;6.10;99.90
16263;DHT22;8239;48.594;8.598;2023-04-01T08:01:11;6.20;99.90
16263;DHT22;8239;48.594;8.598;2023-04-01T08:03:59;6.20;99.90
16263;DHT22;8239;48.594;8.598;2023-04-01T08:06:31;6.30;99.90
16263;DHT22;8239;48.594;8.598;2023-04-01T08:09:04;6.30;99.90
16263;DHT22;8239;48.594;8.598;2023-04-01T08:11:46;6.40;99.90
16263;DHT22;8239;48.594;8.598;2023-04-01T08:14:23;6.50;99.90
16263;DHT22;8239;48.594;8.598;2023-04-01T08:16:57;6.50;99.90
16263;DHT22;8239;48.594;8.598;2023-04-01T08:19:32;6.60;99.90
16263;DHT22;8239;48.594;8.598;2023-04-01T08:22:10;6.60;99.90
16263;DHT22;8239;48.594;8.598;2023-04-01T08:24:42;6.70;99.90
16263;DHT22;8239;48.594;8.598;2023-04-01T08:27:16;6.90;99.90
16263;DHT22;8239;48.594;8.598;2023-04-01T08:29:48;7.00;99.90
16263;DHT22;8239;48.594;8.598;2023-04-01T08:32:18;7.00;99.90
16263;DHT22;8239;48.594;8.598;2023-04-01T08:34:51;6.90;99.90
16263;DHT22;8239;48.594;8.598;2023-04-01T08:37:30;6.90;99.90
16263;DHT22;8239;48.594;8.598;2023-04-01T08:40:01;6.80;99.90
16263;DHT22;8239;48.594;8.598;2023-04-01T08:43:00;6.80;99.90
16263;DHT22;8239;48.594;8.598;2023-04-01T08:45:53;6.70;99.90
16263;DHT22;8239;48.594;8.598;2023-04-01T08:48:32;6.90;99.90
16263;DHT22;8239;48.594;8.598;2023-04-01T08:51:19;7.00;99.90
16263;DHT22;8239;48.594;8.598;2023-04-01T08:54:04;7.20;99.90
16263;DHT22;8239;48.594;8.598;2023-04-01T08:56:38;7.20;99.90
16263;DHT22;8239;48.594;8.598;2023-04-01T09:02:42;7.30;99.90
16263;DHT22;8239;48.594;8.598;2023-04-01T09:08:28;7.30;99.90
16263;DHT22;8239;48.594;8.598;2023-04-01T09:11:08;7.30;99.90
16263;DHT22;8239;48.594;8.598;2023-04-01T09:14:07;7.40;99.90
16263;DHT22;8239;48.594;8.598;2023-04-01T09:17:04;7.50;99.90
16263;DHT22;8239;48.594;8.598;2023-04-01T09:19:50;7.70;99.90
16263;DHT22;8239;48.594;8.598;2023-04-01T09:22:28;8.10;99.90
16263;DHT22;8239;48.594;8.598;2023-04-01T09:25:36;8.30;99.90
16263;DHT22;8239;48.594;8.598;2023-04-01T09:28:10;8.50;99.90
16263;DHT22;8239;48.594;8.598;2023-04-01T09:36:59;8.10;99.90
16263;DHT22;8239;48.594;8.598;2023-04-01T09:39:36;8.00;99.90
16263;DHT22;8239;48.594;8.598;2023-04-01T09:42:29;7.80;99.90
16263;DHT22;8239;48.594;8.598;2023-04-01T09:45:01;7.60;99.90
16263;DHT22;8239;48.594;8.598;2023-04-01T09:47:43;7.50;99.90
16263;DHT22;8239;48.594;8.598;2023-04-01T09:50:21;7.50;99.90
16263;DHT22;8239;48.594;8.598;2023-04-01T09:53:02;7.50;99.90
16263;DHT22;8239;48.594;8.598;2023-04-01T09:56:14;7.50;99.90
16263;DHT22;8239;48.594;8.598;2023-04-01T09:59:09;7.50;99.90
16263;DHT22;8239;48.594;8.598;2023-04-01T10:02:01;7.50;99.90
16263;DHT22;8239;48.594;8.598;2023-04-01T10:05:11;7.60;99.90
16263;DHT22;8239;48.594;8.598;2023-04-01T10:14:31;8.00;99.90
16263;DHT22;8239;48.594;8.598;2023-04-01T10:17:34;8.20;99.90
16263;DHT22;8239;48.594;8.598;2023-04-01T10:20:21;8.30;99.90
16263;DHT22;8239;48.594;8.598;2023-04-01T10:31:16;8.10;99.90
16263;DHT22;8239;48.594;8.598;2023-04-01T10:36:48;8.30;99.90
16263;DHT22;8239;48.594;8.598;2023-04-01T10:46:04;8.20;99.90
16263;DHT22;8239;48.594;8.598;2023-04-01T10:55:19;8.00;99.90
16263;DHT22;8239;48.594;8.598;2023-04-01T10:58:17;7.90;99.90
16263;DHT22;8239;48.594;8.598;2023-04-01T11:04:13;8.00;99.90
16263;DHT22;8239;48.594;8.598;2023-04-01T11:07:16;8.10;99.90
16263;DHT22;8239;48.594;8.598;2023-04-01T11:10:10;8.40;99.90
16263;DHT22;8239;48.594;8.598;2023-04-01T11:19:24;9.10;99.90
16263;DHT22;8239;48.594;8.598;2023-04-01T11:22:20;9.30;99.90
16263;DHT22;8239;48.594;8.598;2023-04-01T11:25:15;9.20;99.90
16263;DHT22;8239;48.594;8.598;2023-04-01T11:28:36;9.10;99.90
16263;DHT22;8239;48.594;8.598;2023-04-01T11:31:24;9.10;99.90
16263;DHT22;8239;48.594;8.598;2023-04-01T11:34:04;9.10;99.90
16263;DHT22;8239;48.594;8.598;2023-04-01T11:36:45;9.20;99.90
16263;DHT22;8239;48.594;8.598;2023-04-01T11:39:22;9.30;99.90
16263;DHT22;8239;48.594;8.598;2023-04-01T11:41:58;9.50;99.90
16263;DHT22;8239;48.594;8.598;2023-04-01T11:44:29;9.80;99.90
16263;DHT22;8239;48.594;8.598;2023-04-01T11:49:59;10.00;99.90
16263;DHT22;8239;48.594;8.598;2023-04-01T11:55:50;10.00;99.90
16263;DHT22;8239;48.594;8.598;2023-04-01T11:58:52;10.00;99.90
16263;DHT22;8239;48.594;8.598;2023-04-01T12:01:36;10.00;99.90
16263;DHT22;8239;48.594;8.598;2023-04-01T12:04:26;10.10;99.90
16263;DHT22;8239;48.594;8.598;2023-04-01T12:07:02;10.30;99.90
16263;DHT22;8239;48.594;8.598;2023-04-01T12:09:39;10.60;99.90
16263;DHT22;8239;48.594;8.598;2023-04-01T12:12:18;11.00;99.90
16263;DHT22;8239;48.594;8.598;2023-04-01T12:14:59;11.30;99.90
16263;DHT22;8239;48.594;8.598;2023-04-01T12:17:34;11.40;99.90
16263;DHT22;8239;48.594;8.598;2023-04-01T12:20:26;11.20;99.90
16263;DHT22;8239;48.594;8.598;2023-04-01T12:23:05;10.80;99.90
16263;DHT22;8239;48.594;8.598;2023-04-01T12:28:44;10.00;99.90
16263;DHT22;8239;48.594;8.598;2023-04-01T12:31:22;9.80;99.90
16263;DHT22;8239;48.594;8.598;2023-04-01T12:34:20;9.80;99.90
16263;DHT22;8239;48.594;8.598;2023-04-01T12:36:57;9.80;99.90
16263;DHT22;8239;48.594;8.598;2023-04-01T12:42:36;9.80;99.90
16263;DHT22;8239;48.594;8.598;2023-04-01T12:51:11;9.70;99.90
16263;DHT22;8239;48.594;8.598;2023-04-01T12:54:12;9.80;99.90
16263;DHT22;8239;48.594;8.598;2023-04-01T12:56:52;9.90;99.90
16263;DHT22;8239;48.594;8.598;2023-04-01T12:59:44;9.90;99.90
16263;DHT22;8239;48.594;8.598;2023-04-01T13:02:17;9.70;99.90
16263;DHT22;8239;48.594;8.598;2023-04-01T13:05:15;9.60;99.90
16263;DHT22;8239;48.594;8.598;2023-04-01T13:07:58;9.50;99.90
16263;DHT22;8239;48.594;8.598;2023-04-01T13:10:41;9.60;99.90
16263;DHT22;8239;48.594;8.598;2023-04-01T13:13:27;9.60;99.90
16263;DHT22;8239;48.594;8.598;2023-04-01T13:16:03;9.70;99.90
16263;DHT22;8239;48.594;8.598;2023-04-01T13:18:39;9.90;99.90
16263;DHT22;8239;48.594;8.598;2023-04-01T13:21:18;10.10;99.90
16263;DHT22;8239;48.594;8.598;2023-04-01T13:23:55;10.20;99.90
16263;DHT22;8239;48.594;8.598;2023-04-01T13:26:32;10.40;99.90
16263;DHT22;8239;48.594;8.598;2023-04-01T13:29:06;10.50;99.90
16263;DHT22;8239;48.594;8.598;2023-04-01T13:31:50;10.50;99.90
16263;DHT22;8239;48.594;8.598;2023-04-01T13:34:39;10.50;99.90
16263;DHT22;8239;48.594;8.598;2023-04-01T13:37:22;10.60;99.90
16263;DHT22;8239;48.594;8.598;2023-04-01T13:40:11;10.60;99.90
16263;DHT22;8239;48.594;8.598;2023-04-01T13:42:45;10.70;99.90
16263;DHT22;8239;48.594;8.598;2023-04-01T13:45:16;10.70;99.90
16263;DHT22;8239;48.594;8.598;2023-04-01T13:48:17;10.80;99.90
16263;DHT22;8239;48.594;8.598;2023-04-01T13:54:26;10.70;99.90
16263;DHT22;8239;48.594;8.598;2023-04-01T13:57:09;10.50;99.90
16263;DHT22;8239;48.594;8.598;2023-04-01T13:59:57;10.40;99.90
16263;DHT22;8239;48.594;8.598;2023-04-01T14:02:45;10.30;99.90
16263;DHT22;8239;48.594;8.598;2023-04-01T14:05:36;10.20;99.90
16263;DHT22;8239;48.594;8.598;2023-04-01T14:08:17;10.00;99.90
16263;DHT22;8239;48.594;8.598;2023-04-01T14:10:55;9.90;99.90
16263;DHT22;8239;48.594;8.598;2023-04-01T14:13:31;9.90;99.90
16263;DHT22;8239;48.594;8.598;2023-04-01T14:19:08;9.80;99.90
16263;DHT22;8239;48.594;8.598;2023-04-01T14:21:42;9.80;99.90
16263;DHT22;8239;48.594;8.598;2023-04-01T14:24:23;9.70;99.90
16263;DHT22;8239;48.594;8.598;2023-04-01T14:33:06;9.70;99.90
16263;DHT22;8239;48.594;8.598;2023-04-01T14:35:43;9.80;99.90
16263;DHT22;8239;48.594;8.598;2023-04-01T14:38:28;9.80;99.90
16263;DHT22;8239;48.594;8.598;2023-04-01T14:41:11;9.80;99.90
16263;DHT22;8239;48.594;8.598;2023-04-01T14:47:08;9.60;99.90
16263;DHT22;8239;48.594;8.598;2023-04-01T14:49:41;9.50;99.90
16263;DHT22;8239;48.594;8.598;2023-04-01T14:52:13;9.50;99.90
16263;DHT22;8239;48.594;8.598;2023-04-01T14:54:45;9.60;99.90
16263;DHT22;8239;48.594;8.598;2023-04-01T14:57:15;9.80;99.90
16263;DHT22;8239;48.594;8.598;2023-04-01T14:59:49;9.80;99.90
16263;DHT22;8239;48.594;8.598;2023-04-01T15:02:33;9.90;99.90
16263;DHT22;8239;48.594;8.598;2023-04-01T15:05:13;9.80;99.90
16263;DHT22;8239;48.594;8.598;2023-04-01T15:08:08;9.70;99.90
16263;DHT22;8239;48.594;8.598;2023-04-01T15:13:52;9.30;99.90
16263;DHT22;8239;48.594;8.598;2023-04-01T15:16:27;9.20;99.90
16263;DHT22;8239;48.594;8.598;2023-04-01T15:19:06;9.10;99.90
16263;DHT22;8239;48.594;8.598;2023-04-01T15:22:09;9.10;99.90
16263;DHT22;8239;48.594;8.598;2023-04-01T15:24:46;8.90;99.90
16263;DHT22;8239;48.594;8.598;2023-04-01T15:27:22;8.90;99.90
16263;DHT22;8239;48.594;8.598;2023-04-01T15:33:06;8.80;99.90
16263;DHT22;8239;48.594;8.598;2023-04-01T15:35:43;8.70;99.90
16263;DHT22;8239;48.594;8.598;2023-04-01T15:38:22;8.70;99.90
16263;DHT22;8239;48.594;8.598;2023-04-01T15:40:56;8.60;99.90
16263;DHT22;8239;48.594;8.598;2023-04-01T15:43:32;8.60;99.90
16263;DHT22;8239;48.594;8.598;2023-04-01T15:46:15;8.60;99.90
16263;DHT22;8239;48.594;8.598;2023-04-01T15:49:01;8.70;99.90
16263;DHT22;8239;48.594;8.598;2023-04-01T15:51:48;8.80;99.90
16263;DHT22;8239;48.594;8.598;2023-04-01T15:54:38;8.90;99.90
16263;DHT22;8239;48.594;8.598;2023-04-01T15:57:32;9.20;99.90
16263;DHT22;8239;48.594;8.598;2023-04-01T16:00:27;9.60;99.90
16263;DHT22;8239;48.594;8.598;2023-04-01T16:03:16;9.90;99.90
16263;DHT22;8239;48.594;8.598;2023-04-01T16:06:01;10.10;99.90
16263;DHT22;8239;48.594;8.598;2023-04-01T16:08:59;10.30;99.90
16263;DHT22;8239;48.594;8.598;2023-04-01T16:11:36;10.30;99.90
16263;DHT22;8239;48.594;8.598;2023-04-01T16:14:20;10.20;99.90
16263;DHT22;8239;48.594;8.598;2023-04-01T16:16:58;10.10;99.90
16263;DHT22;8239;48.594;8.598;2023-04-01T16:19:49;10.00;99.90
16263;DHT22;8239;48.594;8.598;2023-04-01T16:22:21;9.80;99.90
16263;DHT22;8239;48.594;8.598;2023-04-01T16:24:55;9.60;99.90
16263;DHT22;8239;48.594;8.598;2023-04-01T16:27:29;9.50;99.90
16263;DHT22;8239;48.594;8.598;2023-04-01T16:30:03;9.30;99.90
16263;DHT22;8239;48.594;8.598;2023-04-01T16:32:50;9.10;99.90
16263;DHT22;8239;48.594;8.598;2023-04-01T16:35:34;9.00;99.90
16263;DHT22;8239;48.594;8.598;2023-04-01T16:38:09;9.00;99.90
16263;DHT22;8239;48.594;8.598;2023-04-01T16:40:44;9.10;99.90
16263;DHT22;8239;48.594;8.598;2023-04-01T16:43:20;9.40;99.90
16263;DHT22;8239;48.594;8.598;2023-04-01T16:45:57;9.70;99.90
16263;DHT22;8239;48.594;8.598;2023-04-01T16:48:52;9.90;99.90
16263;DHT22;8239;48.594;8.598;2023-04-01T16:51:31;9.90;99.90
16263;DHT22;8239;48.594;8.598;2023-04-01T16:54:05;9.80;99.90
16263;DHT22;8239;48.594;8.598;2023-04-01T16:56:40;9.90;99.90
16263;DHT22;8239;48.594;8.598;2023-04-01T16:59:17;9.90;99.90
16263;DHT22;8239;48.594;8.598;2023-04-01T17:01:51;9.90;99.90
16263;DHT22;8239;48.594;8.598;2023-04-01T17:04:27;9.70;99.90
16263;DHT22;8239;48.594;8.598;2023-04-01T17:07:05;9.60;99.90
16263;DHT22;8239;48.594;8.598;2023-04-01T17:09:53;9.40;99.90
16263;DHT22;8239;48.594;8.598;2023-04-01T17:12:28;9.20;99.90
16263;DHT22;8239;48.594;8.598;2023-04-01T17:15:05;9.00;99.90
16263;DHT22;8239;48.594;8.598;2023-04-01T17:17:43;8.80;99.90
16263;DHT22;8239;48.594;8.598;2023-04-01T17:20:45;8.70;99.90
16263;DHT22;8239;48.594;8.598;2023-04-01T17:23:20;8.50;99.90
16263;DHT22;8239;48.594;8.598;2023-04-01T17:26:15;8.40;99.90
16263;DHT22;8239;48.594;8.598;2023-04-01T17:28:48;8.30;99.90
16263;DHT22;8239;48.594;8.598;2023-04-01T17:31:37;8.20;99.90
16263;DHT22;8239;48.594;8.598;2023-04-01T17:34:32;8.10;99.90
16263;DHT22;8239;48.594;8.598;2023-04-01T17:37:34;8.10;99.90
16263;DHT22;8239;48.594;8.598;2023-04-01T17:40:26;8.00;99.90
16263;DHT22;8239;48.594;8.598;2023-04-01T17:43:19;8.00;99.90
16263;DHT22;8239;48.594;8.598;2023-04-01T17:45:59;7.90;99.90
16263;DHT22;8239;48.594;8.598;2023-04-01T17:48:42;7.80;99.90
16263;DHT22;8239;48.594;8.598;2023-04-01T17:51:23;7.70;99.90
16263;DHT22;8239;48.594;8.598;2023-04-01T17:54:04;7.50;99.90
16263;DHT22;8239;48.594;8.598;2023-04-01T17:56:47;7.30;99.90
16263;DHT22;8239;48.594;8.598;2023-04-01T17:59:22;7.00;99.90
16263;DHT22;8239;48.594;8.598;2023-04-01T18:01:58;6.70;99.90
16263;DHT22;8239;48.594;8.598;2023-04-01T18:04:44;6.50;99.90
16263;DHT22;8239;48.594;8.598;2023-04-01T18:07:35;6.30;99.90
16263;DHT22;8239;48.594;8.598;2023-04-01T18:10:35;6.20;99.90
16263;DHT22;8239;48.594;8.598;2023-04-01T18:13:39;6.10;99.90
16263;DHT22;8239;48.594;8.598;2023-04-01T18:16:26;5.90;99.90
16263;DHT22;8239;48.594;8.598;2023-04-01T18:19:01;5.90;99.90
16263;DHT22;8239;48.594;8.598;2023-04-01T18:21:40;5.80;99.90
16263;DHT22;8239;48.594;8.598;2023-04-01T18:24:19;5.80;99.90
16263;DHT22;8239;48.594;8.598;2023-04-01T18:27:11;5.70;99.90
16263;DHT22;8239;48.594;8.598;2023-04-01T18:29:48;5.70;99.90
16263;DHT22;8239;48.594;8.598;2023-04-01T18:32:26;5.70;99.90
16263;DHT22;8239;48.594;8.598;2023-04-01T18:35:02;5.60;99.90
16263;DHT22;8239;48.594;8.598;2023-04-01T18:38:00;5.60;99.90
16263;DHT22;8239;48.594;8.598;2023-04-01T18:40:35;5.60;99.90
16263;DHT22;8239;48.594;8.598;2023-04-01T18:43:32;5.50;99.90